Time;durP1;ratioP1;P1;durP2;ratioP2;P2;SDS_P1;SDS_P2;PMS_P1;PMS_P2;Temp;Humidity;BMP_temperature;BMP_pressure;BME280_temperature;BME280_humidity;BME280_pressure;Samples;Min_cycle;Max_cycle;Signal;HPM_P1;HPM_P2
2023/10/26 00:00:30;;;;;;;13.43;9.10;;;10.70;99.90;;;;;;5091736;28;20044;-78
2023/10/26 00:02:55;;;;;;;17.45;11.13;;;10.70;99.90;;;;;;5077301;28;20150;-79
2023/10/26 00:05:21;;;;;;;18.08;11.27;;;10.60;99.90;;;;;;5054494;28;20036;-78
2023/10/26 00:07:47;;;;;;;17.15;11.45;;;10.60;99.90;;;;;;5078668;28;20074;-78
2023/10/26 00:10:12;;;;;;;16.95;10.82;;;10.50;99.90;;;;;;5062315;28;20501;-79
2023/10/26 00:12:38;;;;;;;17.15;10.90;;;10.50;99.90;;;;;;5055205;28;20044;-78
2023/10/26 00:15:04;;;;;;;15.27;10.93;;;10.50;99.90;;;;;;5078559;28;20043;-78
2023/10/26 00:17:30;;;;;;;16.73;11.60;;;10.50;99.90;;;;;;5048089;28;20053;-78
2023/10/26 00:19:55;;;;;;;17.63;11.20;;;10.50;99.90;;;;;;5055450;28;20082;-78
2023/10/26 00:22:21;;;;;;;15.10;10.77;;;10.50;99.90;;;;;;5078181;28;20043;-78
2023/10/26 00:24:47;;;;;;;16.85;11.15;;;10.50;99.90;;;;;;5076835;28;20132;-78
2023/10/26 00:27:14;;;;;;;16.23;10.75;;;10.50;99.90;;;;;;5083714;28;20472;-78
2023/10/26 00:29:40;;;;;;;18.70;12.27;;;10.50;99.90;;;;;;5058736;28;20389;-79
2023/10/26 00:32:07;;;;;;;17.65;12.55;;;10.50;99.90;;;;;;5079249;28;20040;-78
2023/10/26 00:34:33;;;;;;;20.15;12.43;;;10.50;99.90;;;;;;5075555;28;20047;-78
2023/10/26 00:36:59;;;;;;;14.43;11.10;;;10.50;99.90;;;;;;5074462;28;20037;-78
2023/10/26 00:39:24;;;;;;;17.77;11.55;;;10.40;99.90;;;;;;5057849;28;20471;-78
2023/10/26 00:41:51;;;;;;;15.93;11.52;;;10.40;99.90;;;;;;5078505;28;20439;-78
2023/10/26 00:44:17;;;;;;;18.13;13.07;;;10.40;99.90;;;;;;5052728;28;20124;-78
2023/10/26 00:46:43;;;;;;;22.23;13.02;;;10.40;99.90;;;;;;5038220;28;20095;-78
2023/10/26 00:49:12;;;;;;;17.20;11.43;;;10.50;99.90;;;;;;5057097;28;20113;-78
2023/10/26 00:51:38;;;;;;;19.42;13.27;;;10.40;99.90;;;;;;5095433;28;20365;-78
2023/10/26 00:54:05;;;;;;;18.08;11.90;;;10.40;99.90;;;;;;5078277;28;20032;-78
2023/10/26 00:56:32;;;;;;;17.25;12.05;;;10.40;99.90;;;;;;5077976;28;20036;-78
2023/10/26 00:58:58;;;;;;;16.90;12.23;;;10.40;99.90;;;;;;5056694;28;20044;-78
2023/10/26 01:01:26;;;;;;;18.33;12.90;;;10.40;99.90;;;;;;5090321;28;20089;-78
2023/10/26 01:03:53;;;;;;;19.50;12.88;;;10.40;99.90;;;;;;5095016;28;20036;-79
2023/10/26 01:06:19;;;;;;;19.77;12.65;;;10.40;99.90;;;;;;5095248;28;20373;-79
2023/10/26 01:08:44;;;;;;;17.95;13.30;;;10.40;99.90;;;;;;5072752;28;20048;-78
2023/10/26 01:11:10;;;;;;;18.23;12.70;;;10.40;99.90;;;;;;5073498;28;20032;-78
2023/10/26 01:13:36;;;;;;;18.10;14.25;;;10.40;99.90;;;;;;5079650;28;20517;-78
2023/10/26 01:16:04;;;;;;;19.23;14.20;;;10.40;99.90;;;;;;5060284;28;20143;-78
2023/10/26 01:18:31;;;;;;;21.67;15.00;;;10.50;99.90;;;;;;5056317;28;20044;-79
2023/10/26 01:20:56;;;;;;;21.73;15.63;;;10.40;99.90;;;;;;5077538;28;20110;-79
2023/10/26 01:23:22;;;;;;;20.17;14.82;;;10.40;99.90;;;;;;5089819;28;20124;-79
2023/10/26 01:25:52;;;;;;;21.45;15.40;;;10.40;99.90;;;;;;5053619;28;20480;-78
2023/10/26 01:28:18;;;;;;;19.35;15.02;;;10.40;99.90;;;;;;5073857;28;20557;-79
2023/10/26 01:30:43;;;;;;;18.52;14.75;;;10.40;99.90;;;;;;5066503;28;20115;-78
2023/10/26 01:33:09;;;;;;;21.05;15.25;;;10.40;99.90;;;;;;5069951;28;20489;-78
2023/10/26 01:35:38;;;;;;;23.63;15.52;;;10.40;99.90;;;;;;5069442;28;20094;-78
2023/10/26 01:38:04;;;;;;;20.27;14.80;;;10.40;99.90;;;;;;5071929;28;20067;-78
2023/10/26 01:40:30;;;;;;;19.77;14.05;;;10.40;99.90;;;;;;5065768;28;20504;-79
2023/10/26 01:42:55;;;;;;;17.63;13.75;;;10.40;99.90;;;;;;5080246;28;20037;-78
2023/10/26 01:45:21;;;;;;;20.27;14.93;;;10.50;99.90;;;;;;5056150;28;20032;-78
2023/10/26 01:47:46;;;;;;;17.45;12.82;;;10.40;99.90;;;;;;5073681;28;20032;-79
2023/10/26 01:50:12;;;;;;;18.63;15.25;;;10.40;99.90;;;;;;5076226;28;20066;-78
2023/10/26 01:52:38;;;;;;;22.40;15.60;;;10.40;99.90;;;;;;5069376;28;20064;-79
2023/10/26 01:55:04;;;;;;;23.65;17.58;;;10.40;99.90;;;;;;5071954;28;20040;-78
2023/10/26 01:57:29;;;;;;;19.52;14.73;;;10.40;99.90;;;;;;5050982;28;20056;-78
2023/10/26 01:59:55;;;;;;;20.17;15.63;;;10.40;99.90;;;;;;5055140;28;20048;-78
2023/10/26 02:02:21;;;;;;;21.50;16.30;;;10.40;99.90;;;;;;5056231;28;20072;-78
2023/10/26 02:04:47;;;;;;;20.85;15.15;;;10.40;99.90;;;;;;5072046;28;20453;-78
2023/10/26 02:07:12;;;;;;;24.80;17.30;;;10.40;99.90;;;;;;5055418;28;20396;-78
2023/10/26 02:09:38;;;;;;;20.20;16.05;;;10.40;99.90;;;;;;5054041;28;20055;-78
2023/10/26 02:12:04;;;;;;;23.25;17.65;;;10.40;99.90;;;;;;5072456;28;20032;-78
2023/10/26 02:14:29;;;;;;;25.80;17.17;;;10.40;99.90;;;;;;5072111;28;20043;-78
2023/10/26 02:16:55;;;;;;;23.30;17.90;;;10.40;99.90;;;;;;5056499;28;20040;-79
2023/10/26 02:19:21;;;;;;;23.10;17.33;;;10.40;99.90;;;;;;5054385;28;20382;-78
2023/10/26 02:21:46;;;;;;;24.58;18.00;;;10.40;99.90;;;;;;5072316;28;20044;-78
2023/10/26 02:24:12;;;;;;;20.92;17.63;;;10.40;99.90;;;;;;5055848;28;20386;-78
2023/10/26 02:26:37;;;;;;;25.88;18.65;;;10.40;99.90;;;;;;5054172;28;20032;-79
2023/10/26 02:29:03;;;;;;;27.00;20.50;;;10.40;99.90;;;;;;5072949;28;20036;-79
2023/10/26 02:31:29;;;;;;;31.05;22.48;;;10.40;99.90;;;;;;5055073;28;20036;-79
2023/10/26 02:33:54;;;;;;;26.85;20.02;;;10.40;99.90;;;;;;5066803;28;20044;-79
2023/10/26 02:36:20;;;;;;;25.95;20.33;;;10.40;99.90;;;;;;5062147;28;20040;-79
2023/10/26 02:38:46;;;;;;;27.23;20.80;;;10.40;99.90;;;;;;5067171;28;20028;-78
2023/10/26 02:41:11;;;;;;;25.20;20.27;;;10.40;99.90;;;;;;5071072;28;20040;-78
2023/10/26 02:43:37;;;;;;;28.17;21.50;;;10.40;99.90;;;;;;5068580;28;20040;-78
2023/10/26 02:46:06;;;;;;;25.77;20.50;;;10.40;99.90;;;;;;5054361;28;20036;-78
2023/10/26 02:48:33;;;;;;;25.63;20.38;;;10.40;99.90;;;;;;5067768;28;20033;-79
2023/10/26 02:50:58;;;;;;;29.85;21.98;;;10.40;99.90;;;;;;5039422;28;20037;-79
2023/10/26 02:53:24;;;;;;;28.17;21.60;;;10.40;99.90;;;;;;5054882;28;20044;-78
2023/10/26 02:55:49;;;;;;;28.70;21.30;;;10.40;99.90;;;;;;5072789;28;20045;-78
2023/10/26 02:58:15;;;;;;;29.92;21.73;;;10.30;99.90;;;;;;5039436;28;20501;-79
2023/10/26 03:00:41;;;;;;;26.40;21.02;;;10.30;99.90;;;;;;5060739;28;20055;-78
2023/10/26 03:03:06;;;;;;;26.55;21.05;;;10.30;99.90;;;;;;5070363;28;20162;-79
2023/10/26 03:05:33;;;;;;;27.55;20.77;;;10.30;99.90;;;;;;5071771;28;20400;-78
2023/10/26 03:07:59;;;;;;;30.90;21.95;;;10.30;99.90;;;;;;5070520;28;20119;-78
2023/10/26 03:10:26;;;;;;;30.02;22.33;;;10.30;99.90;;;;;;5039800;28;20107;-79
2023/10/26 03:12:52;;;;;;;30.15;22.92;;;10.30;99.90;;;;;;5070128;28;20154;-78
2023/10/26 03:15:18;;;;;;;26.70;21.40;;;10.30;99.90;;;;;;5088914;28;20126;-78
2023/10/26 03:17:44;;;;;;;28.23;21.13;;;10.30;99.90;;;;;;5071116;28;20043;-78
2023/10/26 03:20:10;;;;;;;27.75;21.38;;;10.30;99.90;;;;;;5054784;28;20094;-78
2023/10/26 03:22:36;;;;;;;26.67;19.35;;;10.30;99.90;;;;;;5059054;28;20041;-78
2023/10/26 03:25:02;;;;;;;25.58;19.58;;;10.30;99.90;;;;;;5036350;28;20098;-78
2023/10/26 03:27:28;;;;;;;25.75;21.20;;;10.30;99.90;;;;;;5057087;28;20098;-78
2023/10/26 03:29:54;;;;;;;29.90;22.67;;;10.40;99.90;;;;;;5071427;28;20505;-78
2023/10/26 03:32:20;;;;;;;32.65;23.00;;;10.40;99.90;;;;;;5054224;28;20033;-78
2023/10/26 03:34:46;;;;;;;28.23;22.40;;;10.40;99.90;;;;;;5053459;28;20396;-79
2023/10/26 03:37:11;;;;;;;30.67;23.23;;;10.30;99.90;;;;;;5051017;28;20036;-78
2023/10/26 03:39:37;;;;;;;28.55;21.17;;;10.20;99.90;;;;;;5045060;28;20052;-79
2023/10/26 03:42:02;;;;;;;32.30;22.50;;;10.30;99.90;;;;;;5079842;28;20466;-78
2023/10/26 03:44:28;;;;;;;27.90;21.50;;;10.30;99.90;;;;;;5058597;28;20032;-78
2023/10/26 03:46:54;;;;;;;28.90;21.02;;;10.20;99.90;;;;;;5069177;28;20073;-79
2023/10/26 03:49:20;;;;;;;27.73;21.73;;;10.30;99.90;;;;;;5037993;28;20033;-78
2023/10/26 03:51:49;;;;;;;34.10;23.40;;;10.30;99.90;;;;;;5069654;28;20489;-78
2023/10/26 03:54:15;;;;;;;32.60;24.13;;;10.20;99.90;;;;;;5039949;28;20049;-79
2023/10/26 03:56:42;;;;;;;30.42;22.38;;;10.20;99.90;;;;;;5055736;28;20071;-78
2023/10/26 03:59:07;;;;;;;31.50;22.77;;;10.20;99.90;;;;;;5074055;28;20055;-79
2023/10/26 04:01:35;;;;;;;28.52;21.33;;;10.20;99.90;;;;;;5107451;28;20040;-78
2023/10/26 04:04:02;;;;;;;29.27;21.95;;;10.20;99.90;;;;;;5085158;28;20113;-78
2023/10/26 04:06:30;;;;;;;30.95;21.63;;;10.20;99.90;;;;;;5073533;28;20052;-78
2023/10/26 04:08:56;;;;;;;28.30;20.75;;;10.20;99.90;;;;;;5073251;28;20047;-78
2023/10/26 04:11:22;;;;;;;27.95;21.88;;;10.20;99.90;;;;;;5071417;28;20040;-78
2023/10/26 04:13:48;;;;;;;27.58;20.58;;;10.20;99.90;;;;;;5072594;28;20032;-79
2023/10/26 04:16:13;;;;;;;26.88;20.33;;;10.20;99.90;;;;;;5105158;28;20112;-79
2023/10/26 04:18:39;;;;;;;29.90;21.08;;;10.20;99.90;;;;;;5074524;28;20032;-79
2023/10/26 04:21:05;;;;;;;26.02;20.88;;;10.20;99.90;;;;;;5107023;28;20036;-80
2023/10/26 04:23:30;;;;;;;25.98;20.33;;;10.20;99.90;;;;;;5073975;28;20453;-78
2023/10/26 04:25:56;;;;;;;26.27;20.48;;;10.20;99.90;;;;;;5088796;28;20078;-78
2023/10/26 04:28:22;;;;;;;27.63;21.40;;;10.30;99.90;;;;;;5104266;28;20480;-79
2023/10/26 04:30:48;;;;;;;25.27;20.10;;;10.20;99.90;;;;;;5072913;28;20070;-79
2023/10/26 04:33:17;;;;;;;28.35;22.00;;;10.20;99.90;;;;;;5088320;28;20076;-79
2023/10/26 04:35:43;;;;;;;28.08;20.83;;;10.20;99.90;;;;;;5070233;28;20412;-79
2023/10/26 04:38:09;;;;;;;27.65;20.50;;;10.20;99.90;;;;;;5083439;28;20040;-78
2023/10/26 04:40:38;;;;;;;22.42;17.88;;;10.20;99.90;;;;;;5073835;28;20132;-78
2023/10/26 04:43:04;;;;;;;26.65;20.77;;;10.20;99.90;;;;;;5058192;28;20459;-78
2023/10/26 04:45:30;;;;;;;27.42;21.70;;;10.20;99.90;;;;;;5065416;28;20085;-78
2023/10/26 04:47:55;;;;;;;26.52;19.75;;;10.20;99.90;;;;;;5073792;28;20484;-79
2023/10/26 04:50:22;;;;;;;24.77;19.90;;;10.20;99.90;;;;;;5073046;28;20039;-78
2023/10/26 04:52:48;;;;;;;26.60;19.15;;;10.20;99.90;;;;;;5073760;28;20122;-78
2023/10/26 04:55:13;;;;;;;26.98;19.60;;;10.20;99.90;;;;;;5077581;28;20120;-78
2023/10/26 04:57:39;;;;;;;24.85;18.63;;;10.20;99.90;;;;;;5087754;28;20052;-78
2023/10/26 05:00:09;;;;;;;24.45;19.27;;;10.20;99.90;;;;;;5076491;28;20044;-78
2023/10/26 05:02:39;;;;;;;27.27;18.85;;;10.20;99.90;;;;;;5059711;28;20130;-78
2023/10/26 05:05:05;;;;;;;24.92;19.55;;;10.20;99.90;;;;;;5091985;28;20035;-79
2023/10/26 05:07:31;;;;;;;25.60;19.65;;;10.20;99.90;;;;;;5057178;28;20047;-79
2023/10/26 05:09:57;;;;;;;24.92;19.20;;;10.20;99.90;;;;;;5074657;28;20032;-79
2023/10/26 05:12:22;;;;;;;24.35;19.33;;;10.20;99.90;;;;;;5061207;28;20119;-79
2023/10/26 05:14:49;;;;;;;23.02;18.08;;;10.10;99.90;;;;;;5071430;28;20122;-79
2023/10/26 05:17:14;;;;;;;30.23;19.80;;;10.10;99.90;;;;;;5100944;28;20482;-78
2023/10/26 05:19:40;;;;;;;27.42;20.60;;;10.10;99.90;;;;;;5091761;28;20093;-78
2023/10/26 05:22:05;;;;;;;26.92;20.02;;;10.10;99.90;;;;;;5060223;28;20123;-78
2023/10/26 05:24:31;;;;;;;28.58;19.63;;;10.10;99.90;;;;;;5076339;28;20173;-79
2023/10/26 05:26:57;;;;;;;27.40;20.25;;;10.10;99.90;;;;;;5058185;28;20504;-78
2023/10/26 05:29:22;;;;;;;27.65;20.55;;;10.10;99.90;;;;;;5076914;28;20044;-78
2023/10/26 05:31:48;;;;;;;26.40;18.75;;;10.10;99.90;;;;;;5095985;28;20041;-78
2023/10/26 05:34:14;;;;;;;27.23;20.70;;;10.10;99.90;;;;;;5070258;28;20392;-78
2023/10/26 05:36:40;;;;;;;29.15;20.63;;;10.00;99.90;;;;;;5087579;28;20057;-79
2023/10/26 05:39:06;;;;;;;28.58;20.83;;;10.00;99.90;;;;;;5056362;28;20033;-78
2023/10/26 05:41:33;;;;;;;25.30;19.98;;;10.00;99.90;;;;;;5109424;28;20203;-78
2023/10/26 05:43:59;;;;;;;30.13;20.05;;;10.00;99.90;;;;;;5075923;28;20434;-78
2023/10/26 05:46:25;;;;;;;24.55;19.30;;;10.00;99.90;;;;;;5091041;28;20122;-79
2023/10/26 05:48:50;;;;;;;26.55;19.20;;;10.00;99.90;;;;;;5058585;28;20040;-79
2023/10/26 05:51:16;;;;;;;25.70;19.98;;;10.00;99.90;;;;;;5091705;28;20102;-78
2023/10/26 05:53:42;;;;;;;26.70;20.52;;;10.00;99.90;;;;;;5074865;28;20498;-78
2023/10/26 05:56:08;;;;;;;25.90;19.55;;;10.00;99.90;;;;;;5051283;28;20115;-78
2023/10/26 05:58:34;;;;;;;28.90;20.30;;;10.00;99.90;;;;;;5055638;28;20048;-78
2023/10/26 06:01:00;;;;;;;27.33;20.00;;;10.00;99.90;;;;;;5056306;28;20459;-78
2023/10/26 06:03:26;;;;;;;26.83;19.55;;;9.90;99.90;;;;;;5048029;28;20032;-79
2023/10/26 06:05:57;;;;;;;29.63;20.80;;;9.90;99.90;;;;;;5045162;28;20090;-78
2023/10/26 06:08:23;;;;;;;25.50;19.05;;;9.90;99.90;;;;;;5051695;28;20043;-79
2023/10/26 06:10:48;;;;;;;29.13;19.10;;;9.90;99.90;;;;;;5067267;28;20028;-78
2023/10/26 06:13:14;;;;;;;25.27;18.83;;;9.90;99.90;;;;;;5053236;28;20075;-78
2023/10/26 06:15:40;;;;;;;24.25;17.08;;;10.00;99.90;;;;;;5067231;28;20082;-78
2023/10/26 06:18:05;;;;;;;25.50;18.25;;;9.90;99.90;;;;;;5062223;28;20036;-78
2023/10/26 06:20:31;;;;;;;24.58;18.35;;;10.00;99.90;;;;;;5046637;28;20032;-78
2023/10/26 06:22:56;;;;;;;28.13;19.17;;;9.90;99.90;;;;;;5045942;28;20045;-79
2023/10/26 06:25:23;;;;;;;25.67;18.75;;;9.90;99.90;;;;;;5050697;28;20111;-78
2023/10/26 06:27:49;;;;;;;23.27;17.52;;;9.90;99.90;;;;;;5047163;28;20037;-78
2023/10/26 06:30:17;;;;;;;25.98;18.13;;;9.90;99.90;;;;;;5062122;28;20063;-78
2023/10/26 06:32:43;;;;;;;22.45;16.15;;;9.80;99.90;;;;;;5052956;28;20397;-78
2023/10/26 06:35:10;;;;;;;21.63;15.35;;;9.80;99.90;;;;;;5043901;28;20039;-78
2023/10/26 06:37:37;;;;;;;23.00;16.95;;;9.80;99.90;;;;;;5069022;28;20048;-79
2023/10/26 06:40:04;;;;;;;22.02;17.42;;;9.80;99.90;;;;;;5048823;28;20059;-79
2023/10/26 06:42:29;;;;;;;19.67;15.50;;;9.80;99.90;;;;;;5038732;28;20052;-78
2023/10/26 06:44:55;;;;;;;20.83;15.80;;;9.80;99.90;;;;;;5067731;28;20041;-79
2023/10/26 06:47:21;;;;;;;19.85;15.27;;;9.80;99.90;;;;;;5054932;28;20082;-78
2023/10/26 06:49:47;;;;;;;19.35;14.80;;;9.80;99.90;;;;;;5072583;28;20508;-78
2023/10/26 06:52:12;;;;;;;19.80;14.85;;;9.80;99.90;;;;;;5072899;28;20037;-79
2023/10/26 06:54:38;;;;;;;17.45;13.55;;;9.70;99.90;;;;;;5051260;28;20044;-78
2023/10/26 06:57:04;;;;;;;13.98;10.68;;;9.70;99.90;;;;;;5043745;28;20532;-78
2023/10/26 06:59:29;;;;;;;19.15;12.90;;;9.70;99.90;;;;;;5067143;28;20098;-78
2023/10/26 07:01:56;;;;;;;15.15;10.98;;;9.70;99.90;;;;;;5084112;28;20041;-79
2023/10/26 07:04:21;;;;;;;14.38;10.15;;;9.70;99.90;;;;;;5062687;28;20048;-78
2023/10/26 07:06:47;;;;;;;14.18;10.98;;;9.70;99.90;;;;;;5051244;28;20041;-78
2023/10/26 07:09:13;;;;;;;18.88;12.85;;;9.70;99.90;;;;;;5072847;28;20028;-79
2023/10/26 07:11:38;;;;;;;16.10;12.25;;;9.60;99.90;;;;;;5070187;28;20128;-79
2023/10/26 07:14:04;;;;;;;17.80;13.27;;;9.60;99.90;;;;;;5070102;28;20067;-79
2023/10/26 07:16:30;;;;;;;17.30;12.90;;;9.60;99.90;;;;;;5070965;28;20484;-79
2023/10/26 07:18:55;;;;;;;14.13;11.13;;;9.60;99.90;;;;;;5061424;28;20036;-79
2023/10/26 07:21:21;;;;;;;12.07;9.23;;;9.60;99.90;;;;;;5069727;28;20036;-78
2023/10/26 07:23:46;;;;;;;17.98;12.73;;;9.60;99.90;;;;;;5052861;28;20385;-80
2023/10/26 07:26:17;;;;;;;22.77;15.63;;;9.60;99.90;;;;;;5062451;28;20035;-79
2023/10/26 07:28:43;;;;;;;19.65;15.60;;;9.60;99.90;;;;;;5070791;28;20040;-79
2023/10/26 07:31:15;;;;;;;23.05;15.95;;;9.60;99.90;;;;;;5075273;28;20082;-79
2023/10/26 07:33:40;;;;;;;25.73;17.38;;;9.60;99.90;;;;;;5071887;28;20047;-79
2023/10/26 07:36:07;;;;;;;30.85;20.50;;;9.70;99.90;;;;;;5063940;28;20038;-79
2023/10/26 07:38:34;;;;;;;26.98;19.83;;;9.70;99.90;;;;;;5069863;28;20033;-79
2023/10/26 07:41:03;;;;;;;29.30;19.85;;;9.70;99.90;;;;;;5077582;28;20551;-80
2023/10/26 07:43:29;;;;;;;26.73;18.65;;;9.80;99.90;;;;;;5052011;28;20040;-79
2023/10/26 07:45:55;;;;;;;45.90;22.58;;;9.80;99.90;;;;;;5071937;28;20098;-79
2023/10/26 07:48:20;;;;;;;44.55;21.90;;;9.90;99.90;;;;;;5076755;28;20539;-79
2023/10/26 07:50:46;;;;;;;42.58;22.55;;;9.90;99.90;;;;;;5070482;28;20032;-79
2023/10/26 07:53:14;;;;;;;32.65;22.80;;;10.00;99.90;;;;;;5048848;28;20047;-79
2023/10/26 07:55:39;;;;;;;32.85;21.48;;;9.90;99.90;;;;;;5046833;28;20166;-79
2023/10/26 07:58:05;;;;;;;34.53;23.77;;;10.00;99.90;;;;;;5052927;28;20135;-80
2023/10/26 08:00:31;;;;;;;38.25;25.42;;;10.00;99.90;;;;;;5070279;28;20048;-79
2023/10/26 08:02:58;;;;;;;35.08;22.85;;;10.10;99.90;;;;;;5067855;28;20044;-79
2023/10/26 08:05:24;;;;;;;40.17;25.10;;;10.10;99.90;;;;;;5053626;28;20037;-79
2023/10/26 08:07:50;;;;;;;39.58;24.98;;;10.10;99.90;;;;;;5036422;28;20532;-79
2023/10/26 08:10:15;;;;;;;42.42;26.70;;;10.10;99.90;;;;;;5038309;28;20129;-79
2023/10/26 08:12:41;;;;;;;42.85;26.75;;;10.10;99.90;;;;;;5053495;28;20416;-79
2023/10/26 08:15:07;;;;;;;45.58;27.35;;;10.10;99.90;;;;;;5069879;28;20048;-79
2023/10/26 08:17:35;;;;;;;39.63;25.33;;;10.10;99.90;;;;;;5051019;28;20400;-78
2023/10/26 08:20:01;;;;;;;37.53;24.83;;;10.10;99.90;;;;;;5052291;28;20039;-79
2023/10/26 08:22:28;;;;;;;39.50;26.13;;;10.20;99.90;;;;;;5070174;28;20041;-79
2023/10/26 08:24:53;;;;;;;36.58;23.83;;;10.20;99.90;;;;;;5069988;28;20047;-79
2023/10/26 08:27:19;;;;;;;35.92;24.17;;;10.20;99.90;;;;;;5069679;28;20119;-79
2023/10/26 08:29:44;;;;;;;35.03;24.42;;;10.30;99.90;;;;;;5065252;28;20037;-79
2023/10/26 08:32:10;;;;;;;37.30;23.60;;;10.30;99.90;;;;;;5052890;28;20041;-79
2023/10/26 08:34:36;;;;;;;33.13;21.00;;;10.20;99.90;;;;;;5054850;28;20041;-78
2023/10/26 08:37:02;;;;;;;36.67;23.35;;;10.30;99.90;;;;;;5056730;28;20044;-79
2023/10/26 08:39:28;;;;;;;34.78;24.50;;;10.30;99.90;;;;;;5076444;28;20473;-78
2023/10/26 08:41:58;;;;;;;40.25;26.08;;;10.20;99.90;;;;;;5073880;28;20047;-78
2023/10/26 08:44:25;;;;;;;45.35;28.90;;;10.20;99.90;;;;;;5074090;28;20389;-79
2023/10/26 08:46:53;;;;;;;48.55;29.23;;;10.20;99.90;;;;;;5073422;28;20044;-78
2023/10/26 08:49:20;;;;;;;48.15;29.33;;;10.20;99.90;;;;;;5050181;28;20037;-78
2023/10/26 08:51:46;;;;;;;48.15;29.50;;;10.30;99.90;;;;;;5037413;28;20037;-78
2023/10/26 08:54:12;;;;;;;43.90;28.73;;;10.20;99.90;;;;;;5066494;28;20037;-78
2023/10/26 08:56:37;;;;;;;40.67;28.13;;;10.30;99.90;;;;;;5075030;28;20109;-78
2023/10/26 08:59:04;;;;;;;44.45;28.13;;;10.20;99.90;;;;;;5091642;28;20036;-79
2023/10/26 09:01:30;;;;;;;42.92;28.67;;;10.20;99.90;;;;;;5094915;28;20039;-78
2023/10/26 09:03:56;;;;;;;45.70;28.52;;;10.20;99.90;;;;;;5076813;28;20121;-78
2023/10/26 09:06:21;;;;;;;47.20;29.10;;;10.20;99.90;;;;;;5077744;28;20036;-78
2023/10/26 09:09:01;;;;;;;47.10;29.70;;;10.20;99.90;;;;;;5076601;28;20032;-78
2023/10/26 09:11:27;;;;;;;44.78;28.88;;;10.20;99.90;;;;;;5074201;28;20086;-78
2023/10/26 09:13:53;;;;;;;49.13;30.02;;;10.20;99.90;;;;;;5057574;28;20036;-78
2023/10/26 09:16:33;;;;;;;47.70;30.35;;;10.20;99.90;;;;;;5073815;28;20043;-78
2023/10/26 09:18:59;;;;;;;50.25;31.88;;;10.20;99.90;;;;;;5057348;28;20392;-78
2023/10/26 09:21:24;;;;;;;45.83;29.75;;;10.30;99.90;;;;;;5074015;28;20040;-78
2023/10/26 09:23:50;;;;;;;43.80;28.15;;;10.20;99.90;;;;;;5094388;28;20109;-78
2023/10/26 09:26:16;;;;;;;43.92;26.88;;;10.20;99.90;;;;;;5093904;28;20040;-78
2023/10/26 09:28:55;;;;;;;42.30;26.40;;;10.20;99.90;;;;;;5077042;28;20118;-78
2023/10/26 09:31:24;;;;;;;40.33;27.60;;;10.30;99.90;;;;;;5090070;28;20459;-78
2023/10/26 09:33:51;;;;;;;41.95;28.70;;;10.30;99.90;;;;;;5093976;28;20036;-78
2023/10/26 09:36:18;;;;;;;40.50;27.60;;;10.20;99.90;;;;;;5077088;28;20083;-78
2023/10/26 09:38:44;;;;;;;39.20;25.15;;;10.20;99.90;;;;;;5094143;28;20043;-78
2023/10/26 09:41:16;;;;;;;39.38;27.13;;;10.30;99.90;;;;;;5069739;28;20523;-78
2023/10/26 09:43:42;;;;;;;41.67;26.80;;;10.40;99.90;;;;;;5060184;28;20040;-78
2023/10/26 09:46:11;;;;;;;41.25;27.55;;;10.40;99.90;;;;;;5076376;28;20074;-78
2023/10/26 09:48:37;;;;;;;41.38;27.38;;;10.30;99.90;;;;;;5076753;28;20445;-78
2023/10/26 09:51:06;;;;;;;40.78;26.35;;;10.30;99.90;;;;;;5088440;28;20079;-78
2023/10/26 09:53:36;;;;;;;42.33;27.60;;;10.40;99.90;;;;;;5090271;28;20500;-78
2023/10/26 09:56:04;;;;;;;37.17;25.45;;;10.30;99.90;;;;;;5090138;28;20094;-78
2023/10/26 09:58:40;;;;;;;37.72;25.08;;;10.40;99.90;;;;;;5086574;28;20056;-78
2023/10/26 10:01:39;;;;;;;35.55;24.33;;;10.40;99.90;;;;;;5072477;28;20029;-78
2023/10/26 10:04:06;;;;;;;33.78;23.83;;;10.40;99.90;;;;;;5050912;28;20053;-78
2023/10/26 10:06:53;;;;;;;37.33;25.50;;;10.40;99.90;;;;;;5052926;28;20043;-78
2023/10/26 10:09:25;;;;;;;38.45;25.98;;;10.50;99.90;;;;;;5053012;28;20051;-78
2023/10/26 10:12:08;;;;;;;34.90;24.73;;;10.50;99.90;;;;;;5057932;28;20131;-78
2023/10/26 10:14:50;;;;;;;40.97;26.10;;;10.50;99.90;;;;;;5073264;28;20040;-78
2023/10/26 10:17:18;;;;;;;40.17;27.13;;;10.50;99.90;;;;;;5072679;28;20041;-78
2023/10/26 10:19:46;;;;;;;41.20;27.27;;;10.50;99.90;;;;;;5056138;28;20048;-78
2023/10/26 10:22:44;;;;;;;35.67;24.38;;;10.60;99.90;;;;;;5055010;28;20119;-79
2023/10/26 10:25:11;;;;;;;36.50;23.70;;;10.50;99.90;;;;;;5037396;28;20048;-78
2023/10/26 10:28:00;;;;;;;35.20;24.25;;;10.60;99.90;;;;;;5072481;28;20481;-78
2023/10/26 10:30:31;;;;;;;33.75;23.30;;;10.50;99.90;;;;;;5056035;28;20435;-79
2023/10/26 10:32:57;;;;;;;34.72;22.88;;;10.60;99.90;;;;;;5069657;28;20040;-79
2023/10/26 10:35:50;;;;;;;31.92;23.20;;;10.60;99.90;;;;;;5071199;28;20072;-79
2023/10/26 10:38:20;;;;;;;35.28;23.33;;;10.80;99.90;;;;;;5059673;28;20044;-79
2023/10/26 10:40:55;;;;;;;30.85;22.38;;;10.80;99.90;;;;;;5072249;28;20123;-79
2023/10/26 10:43:34;;;;;;;33.63;23.17;;;10.90;99.90;;;;;;5084081;28;20052;-79
2023/10/26 10:46:18;;;;;;;34.22;22.23;;;11.00;99.90;;;;;;5065817;28;20500;-79
2023/10/26 10:48:57;;;;;;;28.58;19.90;;;11.00;99.90;;;;;;5082868;28;20044;-79
2023/10/26 10:51:27;;;;;;;30.23;20.55;;;11.10;99.90;;;;;;5073232;28;20481;-79
2023/10/26 10:53:53;;;;;;;27.35;19.15;;;11.10;99.90;;;;;;5070418;28;20049;-79
2023/10/26 10:56:19;;;;;;;28.80;20.02;;;11.20;99.90;;;;;;5055724;28;20044;-79
2023/10/26 10:58:44;;;;;;;31.10;20.98;;;11.30;99.90;;;;;;5055634;28;20091;-79
2023/10/26 11:01:11;;;;;;;28.77;19.45;;;11.40;99.90;;;;;;5071160;28;20048;-79
2023/10/26 11:03:36;;;;;;;28.65;19.90;;;11.50;99.90;;;;;;5052180;28;20041;-79
2023/10/26 11:06:02;;;;;;;31.23;22.17;;;11.60;99.90;;;;;;5054637;28;20033;-79
2023/10/26 11:08:28;;;;;;;31.10;22.70;;;11.70;99.90;;;;;;5054320;28;20073;-79
2023/10/26 11:10:54;;;;;;;33.47;24.42;;;11.80;99.90;;;;;;5054315;28;20036;-79
2023/10/26 11:13:21;;;;;;;32.00;22.98;;;11.70;99.90;;;;;;5045935;28;20044;-79
2023/10/26 11:15:47;;;;;;;38.38;25.13;;;11.80;99.90;;;;;;5053862;28;20043;-79
2023/10/26 11:18:13;;;;;;;31.95;23.30;;;11.70;99.90;;;;;;5069997;28;20032;-79
2023/10/26 11:20:41;;;;;;;30.33;22.80;;;11.80;99.90;;;;;;5071220;28;20043;-79
2023/10/26 11:23:08;;;;;;;32.80;23.05;;;11.90;99.90;;;;;;5068560;28;20131;-78
2023/10/26 11:25:34;;;;;;;30.95;23.63;;;11.90;99.90;;;;;;5051578;28;20787;-78
2023/10/26 11:28:00;;;;;;;34.67;25.13;;;12.00;99.90;;;;;;5063177;28;20072;-78
2023/10/26 11:30:26;;;;;;;31.02;22.25;;;11.90;99.90;;;;;;5084495;28;20051;-79
2023/10/26 11:32:52;;;;;;;29.88;23.25;;;11.90;99.90;;;;;;5039547;28;20503;-78
2023/10/26 11:35:18;;;;;;;28.20;21.67;;;11.80;99.90;;;;;;5071650;28;20033;-78
2023/10/26 11:37:45;;;;;;;29.40;22.33;;;11.80;99.90;;;;;;5054619;28;20044;-78
2023/10/26 11:40:13;;;;;;;30.40;23.65;;;11.90;99.90;;;;;;5071590;28;20798;-78
2023/10/26 11:42:55;;;;;;;28.80;22.83;;;11.90;99.90;;;;;;5054771;28;20041;-80
2023/10/26 11:45:23;;;;;;;31.90;23.65;;;11.90;99.90;;;;;;5070623;28;20374;-78
2023/10/26 11:47:51;;;;;;;27.38;21.88;;;11.90;99.90;;;;;;5069223;28;20037;-78
2023/10/26 11:50:30;;;;;;;29.63;23.17;;;12.00;99.90;;;;;;5054047;28;20048;-78
2023/10/26 11:52:58;;;;;;;31.58;22.40;;;11.90;99.90;;;;;;5052177;28;20048;-79
2023/10/26 11:55:24;;;;;;;32.63;24.40;;;11.90;99.90;;;;;;5069043;28;20493;-79
2023/10/26 11:57:51;;;;;;;28.15;21.67;;;11.90;99.90;;;;;;5068049;28;20056;-79
2023/10/26 12:00:18;;;;;;;27.92;21.52;;;11.90;99.90;;;;;;5053814;28;20041;-78
2023/10/26 12:02:44;;;;;;;30.17;22.20;;;11.90;99.90;;;;;;5041314;28;20044;-79
2023/10/26 12:05:18;;;;;;;26.58;20.42;;;11.90;99.90;;;;;;5068961;28;20041;-78
2023/10/26 12:07:44;;;;;;;29.85;22.48;;;11.90;99.90;;;;;;5070175;28;20032;-78
2023/10/26 12:10:11;;;;;;;31.05;23.70;;;12.00;99.90;;;;;;5055971;28;20037;-78
2023/10/26 12:12:37;;;;;;;30.17;22.38;;;12.00;99.90;;;;;;5073613;28;20044;-78
2023/10/26 12:15:04;;;;;;;32.28;23.38;;;12.00;99.90;;;;;;5057554;28;20791;-78
2023/10/26 12:17:29;;;;;;;28.52;22.08;;;11.90;99.90;;;;;;5057460;28;20043;-78
2023/10/26 12:19:55;;;;;;;28.20;22.05;;;12.00;99.90;;;;;;5073320;28;20040;-79
2023/10/26 12:22:20;;;;;;;31.83;23.75;;;12.00;99.90;;;;;;5057583;28;20578;-78
2023/10/26 12:24:46;;;;;;;26.98;20.65;;;11.80;99.90;;;;;;5056866;28;20045;-79
2023/10/26 12:27:16;;;;;;;28.42;22.13;;;11.80;99.90;;;;;;5058442;28;20508;-78